Time;durP1;ratioP1;P1;durP2;ratioP2;P2;SDS_P1;SDS_P2;PMS_P1;PMS_P2;Temp;Humidity;BMP_temperature;BMP_pressure;BME280_temperature;BME280_humidity;BME280_pressure;Samples;Min_cycle;Max_cycle;Signal;HPM_P1;HPM_P2
2021/09/15 00:01:40;;;;;;;8.55;7.32;;;21.40;99.90;;;;;;5091001;28;20480;-71
2021/09/15 00:04:05;;;;;;;9.07;7.43;;;21.50;99.90;;;;;;5092643;28;20465;-72
2021/09/15 00:06:31;;;;;;;7.72;6.93;;;21.50;99.90;;;;;;5091397;28;20024;-72
2021/09/15 00:08:56;;;;;;;8.10;7.18;;;21.50;99.90;;;;;;5091134;28;20093;-72
2021/09/15 00:11:23;;;;;;;12.05;8.55;;;21.50;99.90;;;;;;5092243;28;20055;-72
2021/09/15 00:13:49;;;;;;;11.13;7.00;;;21.50;99.90;;;;;;5091811;28;20031;-70
2021/09/15 00:16:14;;;;;;;8.77;7.43;;;21.50;99.90;;;;;;5091952;28;20028;-71
2021/09/15 00:18:40;;;;;;;10.35;7.90;;;21.50;99.90;;;;;;5090606;28;20473;-72
2021/09/15 00:21:06;;;;;;;11.50;8.23;;;21.50;99.90;;;;;;5091085;28;20487;-71
2021/09/15 00:23:31;;;;;;;7.95;7.18;;;21.50;99.90;;;;;;5089915;28;20447;-72
2021/09/15 00:25:57;;;;;;;7.88;7.07;;;21.50;99.90;;;;;;5091383;28;20034;-72
2021/09/15 00:28:23;;;;;;;10.55;7.57;;;21.50;99.90;;;;;;5091149;28;20028;-71
2021/09/15 00:30:48;;;;;;;7.97;7.28;;;21.50;99.90;;;;;;5091545;28;20464;-71
2021/09/15 00:33:14;;;;;;;11.85;8.27;;;21.40;99.90;;;;;;5090652;28;20028;-71
2021/09/15 00:35:40;;;;;;;7.70;6.97;;;21.40;99.90;;;;;;5091094;28;20385;-72
2021/09/15 00:38:06;;;;;;;10.45;7.80;;;21.40;99.90;;;;;;5092349;28;20024;-72
2021/09/15 00:40:31;;;;;;;7.82;7.05;;;21.40;99.90;;;;;;5090166;28;20416;-72
2021/09/15 00:42:57;;;;;;;8.98;6.95;;;21.40;99.90;;;;;;5090811;28;20038;-73
2021/09/15 00:45:22;;;;;;;10.02;8.32;;;21.40;99.90;;;;;;5092198;28;20053;-72
2021/09/15 00:47:48;;;;;;;7.43;6.65;;;21.40;99.90;;;;;;5091411;28;20324;-72
2021/09/15 00:50:14;;;;;;;7.78;6.97;;;21.40;99.90;;;;;;5091913;28;20028;-72
2021/09/15 00:52:40;;;;;;;9.65;7.85;;;21.40;99.90;;;;;;5091254;28;20040;-72
2021/09/15 00:55:06;;;;;;;8.95;8.05;;;21.40;99.90;;;;;;5091667;28;20475;-73
2021/09/15 00:57:32;;;;;;;8.95;7.53;;;21.30;99.90;;;;;;5089546;28;20032;-71
2021/09/15 00:59:57;;;;;;;9.57;8.57;;;21.30;99.90;;;;;;5091022;28;20409;-71
2021/09/15 01:02:23;;;;;;;11.45;7.38;;;21.20;99.90;;;;;;5091241;28;20024;-71
2021/09/15 01:04:49;;;;;;;8.60;7.80;;;21.20;99.90;;;;;;5090432;28;20263;-71
2021/09/15 01:07:14;;;;;;;10.93;7.75;;;21.10;99.90;;;;;;5091186;28;20025;-72
2021/09/15 01:09:40;;;;;;;10.02;7.80;;;21.10;99.90;;;;;;5089216;28;20373;-71
2021/09/15 01:12:10;;;;;;;9.52;8.23;;;21.00;99.90;;;;;;5089871;28;20054;-71
2021/09/15 01:14:38;;;;;;;9.00;7.90;;;21.00;99.90;;;;;;5090164;28;20028;-71
2021/09/15 01:17:04;;;;;;;8.93;7.45;;;21.00;99.90;;;;;;5089798;28;20493;-71
2021/09/15 01:19:29;;;;;;;9.45;7.93;;;21.10;99.90;;;;;;5091054;28;20021;-71
2021/09/15 01:21:56;;;;;;;8.25;7.28;;;21.00;99.90;;;;;;5088867;28;20457;-71
2021/09/15 01:24:23;;;;;;;9.07;8.18;;;21.00;99.90;;;;;;5090930;28;20135;-71
2021/09/15 01:26:51;;;;;;;8.98;7.93;;;21.00;99.90;;;;;;5089368;28;20032;-72
2021/09/15 01:29:22;;;;;;;15.32;7.32;;;21.00;99.90;;;;;;5091194;28;20024;-72
2021/09/15 01:32:03;;;;;;;8.38;7.45;;;21.10;99.90;;;;;;5090396;28;20028;-71
2021/09/15 01:34:35;;;;;;;10.90;8.88;;;21.10;99.90;;;;;;5091484;28;20038;-72
2021/09/15 01:37:01;;;;;;;8.32;7.53;;;21.10;99.90;;;;;;5090839;28;20413;-72
2021/09/15 01:39:27;;;;;;;9.27;7.38;;;21.10;99.90;;;;;;5090646;28;20438;-71
2021/09/15 01:41:57;;;;;;;9.68;8.05;;;21.10;99.90;;;;;;5090476;28;20034;-72
2021/09/15 01:44:45;;;;;;;10.52;8.02;;;21.10;99.90;;;;;;5090968;28;20055;-72
2021/09/15 01:47:13;;;;;;;12.25;7.97;;;21.10;99.90;;;;;;5091069;28;20076;-72
2021/09/15 01:49:41;;;;;;;8.95;8.05;;;21.00;99.90;;;;;;5088846;28;20024;-72
2021/09/15 01:52:08;;;;;;;11.10;8.10;;;21.00;99.90;;;;;;5089409;28;20032;-72
2021/09/15 01:54:34;;;;;;;9.65;8.05;;;21.00;99.90;;;;;;5089898;28;20028;-72
2021/09/15 01:57:00;;;;;;;8.65;7.75;;;21.00;99.90;;;;;;5089492;28;20024;-71
2021/09/15 01:59:26;;;;;;;9.75;7.75;;;21.00;99.90;;;;;;5089369;28;20036;-71
2021/09/15 02:01:52;;;;;;;9.77;7.95;;;20.90;99.90;;;;;;5089812;28;20119;-71
2021/09/15 02:04:18;;;;;;;10.90;8.90;;;20.90;99.90;;;;;;5090859;28;20480;-71
2021/09/15 02:06:44;;;;;;;8.77;7.97;;;20.90;99.90;;;;;;5090078;28;20033;-71
2021/09/15 02:09:10;;;;;;;10.20;7.65;;;20.90;99.90;;;;;;5090377;28;20082;-71
2021/09/15 02:11:37;;;;;;;8.77;7.95;;;20.90;99.90;;;;;;5088388;28;20366;-72
2021/09/15 02:14:03;;;;;;;9.73;8.52;;;20.90;99.90;;;;;;5089429;28;20102;-71
2021/09/15 02:16:29;;;;;;;8.75;7.95;;;20.90;99.90;;;;;;5089683;28;20086;-71
2021/09/15 02:18:55;;;;;;;8.20;7.40;;;20.90;99.90;;;;;;5089308;28;20031;-71
2021/09/15 02:21:21;;;;;;;9.65;8.65;;;20.90;99.90;;;;;;5090526;28;20028;-71
2021/09/15 02:23:47;;;;;;;12.20;9.15;;;20.90;99.90;;;;;;5089647;28;20048;-71
2021/09/15 02:26:14;;;;;;;11.32;8.75;;;20.90;99.90;;;;;;5090815;28;20035;-71
2021/09/15 02:28:39;;;;;;;8.80;7.93;;;20.90;99.90;;;;;;5088612;28;20437;-71
2021/09/15 02:31:06;;;;;;;9.95;8.65;;;20.90;99.90;;;;;;5087557;28;20032;-72
2021/09/15 02:33:32;;;;;;;9.50;8.60;;;20.90;99.90;;;;;;5075054;28;20142;-72
2021/09/15 02:35:57;;;;;;;9.15;8.20;;;20.90;99.90;;;;;;5073667;28;20096;-72
2021/09/15 02:38:23;;;;;;;9.35;8.35;;;20.90;99.90;;;;;;5072673;28;20133;-71
2021/09/15 02:40:49;;;;;;;9.80;8.80;;;20.90;99.90;;;;;;5073537;28;20031;-71
2021/09/15 02:43:14;;;;;;;9.10;8.20;;;20.80;99.90;;;;;;5074128;28;20436;-71
2021/09/15 02:45:40;;;;;;;13.00;9.75;;;20.80;99.90;;;;;;5072105;28;20331;-71
2021/09/15 02:48:06;;;;;;;11.68;8.90;;;20.80;99.90;;;;;;5073475;28;20109;-71
2021/09/15 02:50:32;;;;;;;10.10;9.07;;;20.80;99.90;;;;;;5072339;28;20052;-71
2021/09/15 02:52:58;;;;;;;11.70;9.98;;;20.70;99.90;;;;;;5073072;28;20037;-71
2021/09/15 02:55:24;;;;;;;12.77;10.30;;;20.80;99.90;;;;;;5072591;28;20032;-72
2021/09/15 02:57:50;;;;;;;11.05;9.73;;;20.60;99.90;;;;;;5071555;28;20024;-71
2021/09/15 03:00:16;;;;;;;10.82;9.60;;;20.60;99.90;;;;;;5073476;28;20029;-71
2021/09/15 03:02:42;;;;;;;10.15;8.60;;;20.50;99.90;;;;;;5072841;28;20036;-72
2021/09/15 03:05:08;;;;;;;11.82;10.20;;;20.50;99.90;;;;;;5073605;28;20033;-70
2021/09/15 03:07:34;;;;;;;11.95;9.63;;;20.50;99.90;;;;;;5073534;28;20027;-71
2021/09/15 03:09:59;;;;;;;14.75;9.25;;;20.50;99.90;;;;;;5072606;28;20032;-72
2021/09/15 03:12:25;;;;;;;13.43;10.18;;;20.50;99.90;;;;;;5071908;28;20063;-72
2021/09/15 03:14:51;;;;;;;12.02;9.77;;;20.50;99.90;;;;;;5072457;28;20044;-72
2021/09/15 03:17:16;;;;;;;11.50;9.73;;;20.50;99.90;;;;;;5073251;28;20063;-72
2021/09/15 03:19:42;;;;;;;9.32;8.40;;;20.40;99.90;;;;;;5071105;28;20021;-71
2021/09/15 03:22:08;;;;;;;10.38;9.38;;;20.50;99.90;;;;;;5072538;28;20135;-72
2021/09/15 03:24:33;;;;;;;9.52;8.50;;;20.50;99.90;;;;;;5072969;28;20040;-72
2021/09/15 03:27:03;;;;;;;10.57;9.30;;;20.40;99.90;;;;;;5071162;28;20029;-72
2021/09/15 03:29:29;;;;;;;9.73;8.77;;;20.30;99.90;;;;;;5072897;28;20055;-72
2021/09/15 03:31:54;;;;;;;12.02;9.07;;;20.30;99.90;;;;;;5072250;28;20109;-72
2021/09/15 03:34:20;;;;;;;12.82;8.70;;;20.40;99.90;;;;;;5071538;28;20032;-72
2021/09/15 03:36:45;;;;;;;10.23;9.15;;;20.40;99.90;;;;;;5071952;28;20032;-72
2021/09/15 03:39:14;;;;;;;13.95;9.95;;;20.50;99.90;;;;;;5072760;28;20098;-72
2021/09/15 03:41:40;;;;;;;12.18;9.48;;;20.50;99.90;;;;;;5072035;28;20024;-75
2021/09/15 03:44:06;;;;;;;12.18;9.85;;;20.40;99.90;;;;;;5072443;28;20474;-71
2021/09/15 03:46:31;;;;;;;13.50;9.18;;;20.30;99.90;;;;;;5071114;28;20379;-72
2021/09/15 03:48:57;;;;;;;10.73;9.63;;;20.30;99.90;;;;;;5070599;28;20036;-72
2021/09/15 03:51:23;;;;;;;10.82;9.40;;;20.30;99.90;;;;;;5072408;28;20111;-72
2021/09/15 03:53:48;;;;;;;10.35;9.20;;;20.30;99.90;;;;;;5072064;28;20105;-72
2021/09/15 03:56:14;;;;;;;10.45;8.38;;;20.30;99.90;;;;;;5071256;28;20398;-71
2021/09/15 03:58:40;;;;;;;12.63;9.35;;;20.30;99.90;;;;;;5072334;28;20024;-71
2021/09/15 04:01:06;;;;;;;10.38;8.98;;;20.30;99.90;;;;;;5072432;28;20060;-71
2021/09/15 04:03:32;;;;;;;14.07;9.68;;;20.30;99.90;;;;;;5071681;28;20513;-71
2021/09/15 04:05:58;;;;;;;10.25;9.18;;;20.30;99.90;;;;;;5070136;28;20120;-72
2021/09/15 04:08:24;;;;;;;14.30;9.82;;;20.30;99.90;;;;;;5072048;28;20107;-71
2021/09/15 04:10:49;;;;;;;11.30;9.15;;;20.20;99.90;;;;;;5070074;28;20024;-71
2021/09/15 04:13:15;;;;;;;10.85;9.18;;;20.20;99.90;;;;;;5072084;28;20478;-72
2021/09/15 04:15:41;;;;;;;10.40;9.40;;;20.20;99.90;;;;;;5071916;28;20433;-71
2021/09/15 04:18:07;;;;;;;15.45;10.32;;;20.30;99.90;;;;;;5071764;28;20047;-71
2021/09/15 04:20:32;;;;;;;17.40;10.48;;;20.30;99.90;;;;;;5071899;28;20389;-71
2021/09/15 04:22:58;;;;;;;16.77;9.80;;;20.40;99.90;;;;;;5069090;28;20048;-71
2021/09/15 04:33:58;;;;;;;13.02;10.02;;;20.50;99.90;;;;;;5048162;28;20351;-71
2021/09/15 04:36:24;;;;;;;14.02;10.88;;;20.60;99.90;;;;;;5048847;28;20167;-72
2021/09/15 04:38:49;;;;;;;11.77;10.52;;;20.60;99.90;;;;;;5048165;28;20403;-71
2021/09/15 04:41:16;;;;;;;12.43;9.75;;;20.60;99.90;;;;;;5049014;28;20039;-72
2021/09/15 04:43:42;;;;;;;13.82;10.13;;;20.70;99.90;;;;;;5048631;28;20560;-71
2021/09/15 04:46:07;;;;;;;15.38;10.50;;;20.70;99.90;;;;;;5048375;28;20044;-71
2021/09/15 04:48:33;;;;;;;10.80;9.70;;;20.70;99.90;;;;;;5048898;28;20101;-71
2021/09/15 04:50:59;;;;;;;11.18;9.13;;;20.60;99.90;;;;;;5048166;28;20084;-71
2021/09/15 04:53:25;;;;;;;14.05;10.38;;;20.60;99.90;;;;;;5048049;28;20048;-71
2021/09/15 04:55:51;;;;;;;15.38;10.25;;;20.70;99.90;;;;;;5048018;28;20037;-71
2021/09/15 04:58:16;;;;;;;13.35;11.20;;;20.70;99.90;;;;;;5048656;28;20048;-71
2021/09/15 05:00:43;;;;;;;11.60;9.43;;;20.70;99.90;;;;;;5048416;28;20025;-71
2021/09/15 05:03:08;;;;;;;15.98;10.45;;;20.70;99.90;;;;;;5047902;28;20558;-71
2021/09/15 05:05:34;;;;;;;15.98;10.82;;;20.70;99.90;;;;;;5067054;28;20032;-71
2021/09/15 05:07:59;;;;;;;12.13;9.90;;;20.70;99.90;;;;;;5070450;28;20355;-71
2021/09/15 05:10:25;;;;;;;18.35;10.57;;;20.60;99.90;;;;;;5070919;28;20051;-72
2021/09/15 05:12:52;;;;;;;11.27;10.13;;;20.60;99.90;;;;;;5068875;28;20056;-71
2021/09/15 05:15:18;;;;;;;15.15;9.75;;;20.60;99.90;;;;;;5071020;28;20485;-72
2021/09/15 05:17:45;;;;;;;17.20;11.63;;;20.50;99.90;;;;;;5070651;28;20454;-70
2021/09/15 05:20:11;;;;;;;14.20;11.00;;;20.50;99.90;;;;;;5069692;28;20033;-71
2021/09/15 05:22:36;;;;;;;12.32;10.63;;;20.30;99.90;;;;;;5070550;28;20052;-71
2021/09/15 05:25:02;;;;;;;15.55;11.20;;;20.30;99.90;;;;;;5070145;28;20098;-71
2021/09/15 05:27:28;;;;;;;13.35;10.73;;;20.40;99.90;;;;;;5070526;28;20021;-71
2021/09/15 05:29:54;;;;;;;15.80;11.07;;;20.20;99.90;;;;;;5070581;28;20029;-70
2021/09/15 05:32:19;;;;;;;13.20;10.48;;;20.10;99.90;;;;;;5069394;28;20417;-72
2021/09/15 05:34:45;;;;;;;17.00;11.32;;;20.10;99.90;;;;;;5069339;28;20028;-71
2021/09/15 05:37:11;;;;;;;15.98;10.35;;;20.10;99.90;;;;;;5069262;28;20036;-72
2021/09/15 05:39:36;;;;;;;14.95;10.85;;;20.10;99.90;;;;;;5070337;28;20389;-73
2021/09/15 05:42:03;;;;;;;14.13;11.00;;;20.20;99.90;;;;;;5070209;28;20020;-72
2021/09/15 05:44:28;;;;;;;13.13;10.13;;;20.00;99.90;;;;;;5070540;28;20424;-72
2021/09/15 05:46:54;;;;;;;13.02;11.25;;;20.10;99.90;;;;;;5068493;28;20036;-71
2021/09/15 05:49:20;;;;;;;12.63;10.27;;;20.20;99.90;;;;;;5068915;28;20028;-72
2021/09/15 05:51:45;;;;;;;11.02;9.63;;;20.10;99.90;;;;;;5068845;28;20070;-72
2021/09/15 05:54:11;;;;;;;11.05;9.88;;;20.10;99.90;;;;;;5068053;28;20107;-71
2021/09/15 05:56:38;;;;;;;12.73;9.80;;;20.10;99.90;;;;;;5068817;28;20032;-72
2021/09/15 05:59:04;;;;;;;20.10;10.75;;;20.20;99.90;;;;;;5069372;28;20021;-71
2021/09/15 06:01:30;;;;;;;12.65;9.07;;;20.20;99.90;;;;;;5068641;28;20035;-70
2021/09/15 06:03:55;;;;;;;10.52;8.90;;;20.20;99.90;;;;;;5069162;28;20033;-72
2021/09/15 06:06:21;;;;;;;10.95;8.60;;;20.20;99.90;;;;;;5071460;28;20367;-72
2021/09/15 06:08:46;;;;;;;11.02;8.85;;;20.30;99.90;;;;;;5073867;28;20434;-71
2021/09/15 06:11:13;;;;;;;14.23;8.98;;;20.40;99.90;;;;;;5073574;28;20028;-71
2021/09/15 06:13:38;;;;;;;10.10;8.38;;;20.40;99.90;;;;;;5074062;28;20039;-71
2021/09/15 06:16:06;;;;;;;9.82;8.05;;;20.40;99.90;;;;;;5071903;28;20020;-71
2021/09/15 06:18:33;;;;;;;14.82;8.75;;;20.50;99.90;;;;;;5072233;28;20043;-72
2021/09/15 06:21:00;;;;;;;17.80;9.25;;;20.40;99.90;;;;;;5072030;28;20450;-71
2021/09/15 06:23:26;;;;;;;11.77;7.95;;;20.50;99.90;;;;;;5073270;28;20064;-71
2021/09/15 06:25:51;;;;;;;11.38;8.65;;;20.40;99.90;;;;;;5071567;28;20024;-72
2021/09/15 06:28:17;;;;;;;13.13;9.27;;;20.40;99.90;;;;;;5073289;28;20446;-71
2021/09/15 06:30:43;;;;;;;11.43;8.63;;;20.40;99.90;;;;;;5073784;28;20407;-71
2021/09/15 06:33:08;;;;;;;10.18;8.55;;;20.40;99.90;;;;;;5071171;28;20029;-71
2021/09/15 06:35:34;;;;;;;14.73;8.63;;;20.40;99.90;;;;;;5073565;28;20024;-72
2021/09/15 06:38:00;;;;;;;11.43;7.38;;;20.30;99.90;;;;;;5072675;28;20025;-62
2021/09/15 06:40:25;;;;;;;10.57;8.75;;;20.50;99.90;;;;;;5073532;28;20028;-63
2021/09/15 06:42:51;;;;;;;11.48;8.52;;;20.40;99.90;;;;;;5072181;28;20037;-64
2021/09/15 06:45:17;;;;;;;4.93;4.40;;;20.60;99.90;;;;;;5073297;28;20024;-64
2021/09/15 06:47:44;;;;;;;7.95;4.88;;;21.40;99.90;;;;;;5072974;28;20354;-65
2021/09/15 06:50:12;;;;;;;8.13;5.95;;;21.70;99.90;;;;;;5072453;28;20103;-65
2021/09/15 06:52:38;;;;;;;9.48;5.80;;;21.90;99.90;;;;;;5071563;28;20123;-64
2021/09/15 06:55:04;;;;;;;10.57;6.68;;;22.00;99.90;;;;;;5071002;28;20079;-63
2021/09/15 06:57:30;;;;;;;9.73;8.05;;;22.10;99.90;;;;;;5072749;28;20034;-54
2021/09/15 06:59:56;;;;;;;13.25;9.40;;;22.00;99.90;;;;;;5070509;28;20108;-52
2021/09/15 07:02:21;;;;;;;10.35;8.27;;;21.70;99.90;;;;;;5072537;28;20047;-53
2021/09/15 07:04:47;;;;;;;11.48;8.82;;;21.30;99.90;;;;;;5072169;28;20048;-50
2021/09/15 07:07:13;;;;;;;12.77;9.70;;;21.30;99.90;;;;;;5072433;28;20109;-51
2021/09/15 07:09:38;;;;;;;10.52;8.50;;;21.20;99.90;;;;;;5071378;28;20411;-51
2021/09/15 07:12:04;;;;;;;12.35;10.85;;;21.40;99.90;;;;;;5069928;28;20050;-50
2021/09/15 07:14:30;;;;;;;12.98;10.15;;;21.20;99.90;;;;;;5072974;28;20101;-50
2021/09/15 07:16:56;;;;;;;14.25;10.15;;;20.90;99.90;;;;;;5071459;28;20032;-50
2021/09/15 07:19:21;;;;;;;13.25;11.60;;;20.90;99.90;;;;;;5071063;28;20052;-51
2021/09/15 07:21:47;;;;;;;15.55;12.52;;;20.60;99.90;;;;;;5078579;28;20488;-51
2021/09/15 07:24:12;;;;;;;14.45;11.77;;;20.50;99.90;;;;;;5092152;28;20116;-52
2021/09/15 07:26:38;;;;;;;16.27;14.38;;;20.20;99.90;;;;;;5091268;28;20131;-51
2021/09/15 07:29:04;;;;;;;16.42;12.35;;;20.30;99.90;;;;;;5090561;28;20031;-51
2021/09/15 07:31:32;;;;;;;13.80;11.35;;;20.20;99.90;;;;;;5091249;28;20152;-52
2021/09/15 07:33:57;;;;;;;17.25;11.57;;;20.30;99.90;;;;;;5091862;28;20115;-51
2021/09/15 07:36:23;;;;;;;14.00;11.60;;;20.20;99.90;;;;;;5092559;28;20530;-52
2021/09/15 07:38:49;;;;;;;11.52;10.35;;;20.40;99.90;;;;;;5092351;28;20036;-51
2021/09/15 07:41:14;;;;;;;13.82;9.50;;;20.60;99.90;;;;;;5091432;28;20039;-50
2021/09/15 07:43:40;;;;;;;11.77;9.57;;;20.60;99.90;;;;;;5091861;28;20028;-51
2021/09/15 07:46:06;;;;;;;13.18;10.02;;;20.80;99.90;;;;;;5091506;28;20425;-51
2021/09/15 07:48:31;;;;;;;19.95;10.35;;;21.10;99.90;;;;;;5091024;28;20035;-51
2021/09/15 07:50:57;;;;;;;11.35;9.35;;;21.00;99.90;;;;;;5089965;28;20061;-51
2021/09/15 07:53:23;;;;;;;10.85;8.00;;;21.00;99.90;;;;;;5091938;28;20115;-52
2021/09/15 07:55:48;;;;;;;10.18;7.78;;;21.30;99.90;;;;;;5092057;28;20023;-51
2021/09/15 07:58:14;;;;;;;12.65;7.43;;;21.50;99.90;;;;;;5089420;28;20119;-51
2021/09/15 08:00:41;;;;;;;14.23;8.50;;;21.60;99.90;;;;;;5090611;28;20311;-49
2021/09/15 08:03:06;;;;;;;9.80;7.50;;;21.50;99.90;;;;;;5089392;28;20043;-49
2021/09/15 08:05:32;;;;;;;10.38;7.90;;;21.30;99.90;;;;;;5090697;28;20040;-49
2021/09/15 08:07:58;;;;;;;8.90;7.20;;;21.10;99.90;;;;;;5091150;28;20051;-49
2021/09/15 08:10:23;;;;;;;11.10;7.25;;;21.10;99.90;;;;;;5090651;28;20077;-52
2021/09/15 08:12:49;;;;;;;14.13;7.47;;;21.00;99.90;;;;;;5090574;28;20381;-52
2021/09/15 08:15:15;;;;;;;7.90;7.10;;;21.10;99.90;;;;;;5089907;28;20671;-52
2021/09/15 08:17:40;;;;;;;9.50;7.55;;;21.10;99.90;;;;;;5091867;28;20035;-48
2021/09/15 08:20:07;;;;;;;7.85;7.15;;;21.30;99.90;;;;;;5079719;28;20103;-48
2021/09/15 08:22:33;;;;;;;9.45;7.25;;;21.20;99.90;;;;;;5089717;28;20048;-49
2021/09/15 08:24:58;;;;;;;11.32;7.63;;;21.00;99.90;;;;;;5091176;28;20414;-49
2021/09/15 08:27:24;;;;;;;9.98;8.07;;;20.90;99.90;;;;;;5091747;28;20044;-50
2021/09/15 08:29:50;;;;;;;7.97;7.05;;;20.90;99.90;;;;;;5090491;28;20032;-49
2021/09/15 08:32:16;;;;;;;11.02;7.75;;;21.00;99.90;;;;;;5092472;28;20052;-50
2021/09/15 08:34:41;;;;;;;10.32;7.45;;;21.10;99.90;;;;;;5092245;28;20020;-48
2021/09/15 08:37:07;;;;;;;8.80;7.90;;;21.20;99.90;;;;;;5089889;28;20169;-49
2021/09/15 08:39:33;;;;;;;9.60;8.07;;;21.20;99.90;;;;;;5089650;28;20034;-48
2021/09/15 08:41:58;;;;;;;11.30;8.98;;;21.10;99.90;;;;;;5097889;28;20108;-48
2021/09/15 08:44:24;;;;;;;10.40;7.88;;;21.00;99.90;;;;;;5100362;28;20043;-48
2021/09/15 08:46:56;;;;;;;9.55;8.50;;;20.90;99.90;;;;;;5090841;28;20107;-50
2021/09/15 08:49:23;;;;;;;10.23;9.23;;;20.90;99.90;;;;;;5090772;28;20460;-48
2021/09/15 08:51:49;;;;;;;11.10;8.38;;;20.80;99.90;;;;;;5095538;28;20119;-48
2021/09/15 08:54:14;;;;;;;10.05;8.32;;;20.90;99.90;;;;;;5111050;28;20034;-48
2021/09/15 08:56:41;;;;;;;10.82;8.25;;;21.00;99.90;;;;;;5098887;28;20139;-49
2021/09/15 08:59:07;;;;;;;9.65;7.50;;;20.90;99.90;;;;;;5091428;28;20353;-48
2021/09/15 09:01:33;;;;;;;9.85;8.45;;;21.10;99.90;;;;;;5107788;28;20016;-48
2021/09/15 09:03:59;;;;;;;11.60;8.13;;;21.50;99.90;;;;;;5097139;28;20096;-48
2021/09/15 09:06:30;;;;;;;13.13;9.32;;;21.10;99.90;;;;;;5111136;28;20075;-50
2021/09/15 09:08:57;;;;;;;10.98;9.13;;;20.90;99.90;;;;;;5111106;28;20020;-50
2021/09/15 09:11:28;;;;;;;9.50;8.38;;;20.70;99.90;;;;;;5107502;28;20024;-50
2021/09/15 09:13:59;;;;;;;9.48;8.02;;;20.60;99.90;;;;;;5093897;28;20028;-51
2021/09/15 09:16:45;;;;;;;11.77;8.88;;;20.50;99.90;;;;;;5089824;28;20036;-49
2021/09/15 09:19:14;;;;;;;11.85;10.10;;;20.50;99.90;;;;;;5089843;28;20469;-49
2021/09/15 09:21:44;;;;;;;12.57;9.70;;;20.50;99.90;;;;;;5090159;28;20038;-49
2021/09/15 09:24:12;;;;;;;12.07;9.43;;;20.50;99.90;;;;;;5090006;28;20055;-49
2021/09/15 09:26:58;;;;;;;11.57;10.07;;;20.40;99.90;;;;;;5083648;28;20020;-48
2021/09/15 09:29:35;;;;;;;10.70;9.70;;;20.40;99.90;;;;;;5070065;28;20033;-52
2021/09/15 09:32:09;;;;;;;12.50;11.05;;;20.40;99.90;;;;;;5068017;28;20031;-49
2021/09/15 09:34:47;;;;;;;11.25;9.38;;;20.40;99.90;;;;;;5070053;28;20040;-49
2021/09/15 09:37:17;;;;;;;10.55;9.30;;;20.50;99.90;;;;;;5069857;28;20047;-49
2021/09/15 09:39:51;;;;;;;12.80;10.60;;;20.70;99.90;;;;;;5072086;28;20025;-51
2021/09/15 09:42:23;;;;;;;14.35;9.93;;;20.70;99.90;;;;;;5073345;28;20463;-49
2021/09/15 09:45:13;;;;;;;12.57;10.90;;;20.70;99.90;;;;;;5072956;28;20032;-49
2021/09/15 09:47:40;;;;;;;11.73;8.88;;;20.70;99.90;;;;;;5067911;28;20052;-49
2021/09/15 09:50:13;;;;;;;11.48;10.23;;;20.90;99.90;;;;;;5073633;28;20048;-50
2021/09/15 09:53:02;;;;;;;15.80;10.15;;;20.80;99.90;;;;;;5074170;28;20115;-49
2021/09/15 09:55:36;;;;;;;10.20;9.20;;;21.00;99.90;;;;;;5088463;28;20469;-50
2021/09/15 09:58:03;;;;;;;12.25;10.23;;;21.00;99.90;;;;;;5093801;28;20028;-50
2021/09/15 10:00:30;;;;;;;11.65;8.80;;;21.00;99.90;;;;;;5094316;28;20079;-49
2021/09/15 10:02:58;;;;;;;12.95;9.52;;;21.00;99.90;;;;;;5092885;28;20127;-49
2021/09/15 10:05:24;;;;;;;9.93;8.93;;;21.00;99.90;;;;;;5091910;28;20043;-49
2021/09/15 10:07:51;;;;;;;10.98;9.23;;;20.90;99.90;;;;;;5093814;28;20338;-49
2021/09/15 10:10:21;;;;;;;12.90;9.32;;;20.80;99.90;;;;;;5091678;28;20043;-50
2021/09/15 10:12:54;;;;;;;9.98;8.60;;;20.90;99.90;;;;;;5090862;28;20365;-49
2021/09/15 10:15:19;;;;;;;11.48;9.80;;;20.80;99.90;;;;;;5097205;28;20104;-50
2021/09/15 10:17:53;;;;;;;10.50;9.40;;;20.80;99.90;;;;;;5094841;28;20507;-50
2021/09/15 10:20:28;;;;;;;11.20;10.00;;;20.80;99.90;;;;;;5092776;28;20028;-65
2021/09/15 10:22:54;;;;;;;10.40;8.75;;;20.80;99.90;;;;;;5090756;28;20147;-65
2021/09/15 10:25:38;;;;;;;11.77;8.52;;;20.90;99.90;;;;;;5091719;28;20146;-66
2021/09/15 10:28:05;;;;;;;12.43;8.95;;;20.90;99.90;;;;;;5090194;28;20047;-66
2021/09/15 10:30:51;;;;;;;12.50;8.57;;;20.90;99.90;;;;;;5090041;28;20118;-66
2021/09/15 10:33:35;;;;;;;9.52;8.45;;;20.90;99.90;;;;;;5079688;28;20028;-65
2021/09/15 10:36:02;;;;;;;12.23;8.90;;;20.90;99.90;;;;;;5091985;28;20055;-72
2021/09/15 10:38:53;;;;;;;11.90;7.78;;;21.00;99.90;;;;;;5086646;28;20028;-70
2021/09/15 10:41:31;;;;;;;7.25;5.47;;;20.90;99.90;;;;;;5075875;28;20078;-65
2021/09/15 10:44:04;;;;;;;9.73;5.90;;;21.00;99.90;;;;;;5072013;28;20070;-64
2021/09/15 10:46:30;;;;;;;7.40;5.18;;;21.10;99.90;;;;;;5100457;28;20019;-65
2021/09/15 10:49:16;;;;;;;6.13;5.53;;;21.20;99.90;;;;;;5108781;28;20426;-65
2021/09/15 10:51:42;;;;;;;8.75;6.15;;;21.20;99.90;;;;;;5089484;28;20093;-65
2021/09/15 10:54:46;;;;;;;6.40;5.43;;;21.10;99.90;;;;;;5091068;28;20027;-65
2021/09/15 10:57:13;;;;;;;6.45;5.40;;;21.00;99.90;;;;;;5091258;28;20016;-67
2021/09/15 10:59:51;;;;;;;5.05;4.50;;;21.20;99.90;;;;;;5090431;28;20051;-65
2021/09/15 11:02:35;;;;;;;6.07;4.80;;;21.10;99.90;;;;;;5089719;28;20449;-64
2021/09/15 11:05:27;;;;;;;6.03;4.03;;;21.10;99.90;;;;;;5091824;28;20029;-66
2021/09/15 11:07:53;;;;;;;4.95;4.47;;;21.10;99.90;;;;;;5091521;28;20028;-65
2021/09/15 11:10:31;;;;;;;8.68;5.10;;;21.10;99.90;;;;;;5087648;28;20450;-66
2021/09/15 11:13:02;;;;;;;5.47;4.10;;;21.20;99.90;;;;;;5070921;28;20081;-66
2021/09/15 11:15:52;;;;;;;5.87;3.97;;;21.10;99.90;;;;;;5082254;28;20096;-65
2021/09/15 11:18:22;;;;;;;6.05;4.13;;;21.30;99.90;;;;;;5090628;28;20024;-65
2021/09/15 11:21:02;;;;;;;11.40;4.38;;;21.30;99.90;;;;;;5089699;28;20487;-65
2021/09/15 11:23:29;;;;;;;5.60;4.10;;;21.40;99.90;;;;;;5089541;28;20087;-67
2021/09/15 11:25:55;;;;;;;4.10;3.42;;;21.40;99.90;;;;;;5072082;28;20075;-66
2021/09/15 11:28:25;;;;;;;4.93;3.50;;;21.50;99.90;;;;;;5069301;28;20385;-65
2021/09/15 11:30:56;;;;;;;4.75;3.90;;;21.50;99.90;;;;;;5074188;28;20111;-65
2021/09/15 11:33:38;;;;;;;5.97;3.58;;;21.50;99.90;;;;;;5087630;28;20072;-65
2021/09/15 11:36:11;;;;;;;9.93;4.07;;;21.60;99.90;;;;;;5079432;28;20036;-67
2021/09/15 11:38:41;;;;;;;5.82;3.83;;;21.70;99.90;;;;;;5091062;28;20043;-65
2021/09/15 11:41:09;;;;;;;5.10;3.95;;;21.70;99.90;;;;;;5092231;28;20093;-64
2021/09/15 11:43:36;;;;;;;9.02;4.18;;;21.70;99.90;;;;;;5091584;27;20044;-65
2021/09/15 11:46:02;;;;;;;4.88;3.88;;;21.70;99.90;;;;;;5101351;28;20040;-70
2021/09/15 11:48:29;;;;;;;8.60;4.00;;;21.70;99.90;;;;;;5110881;28;20054;-63
2021/09/15 11:50:56;;;;;;;7.10;3.83;;;21.60;99.90;;;;;;5110633;28;20397;-65
2021/09/15 11:53:22;;;;;;;4.15;3.75;;;21.60;99.90;;;;;;5076134;28;20471;-63
2021/09/15 11:55:59;;;;;;;5.32;3.92;;;21.70;99.90;;;;;;5087415;28;20031;-64
2021/09/15 11:58:25;;;;;;;6.43;3.60;;;21.80;99.90;;;;;;5085293;28;20074;-64
2021/09/15 12:00:52;;;;;;;4.90;3.53;;;21.90;99.90;;;;;;5090794;28;20032;-64
2021/09/15 12:03:26;;;;;;;7.43;3.88;;;21.80;99.90;;;;;;5084243;28;20442;-64
2021/09/15 12:05:57;;;;;;;5.60;4.22;;;21.70;99.90;;;;;;5070195;28;20081;-65
2021/09/15 12:08:24;;;;;;;6.32;3.53;;;21.70;99.90;;;;;;5067649;28;20032;-64
2021/09/15 12:10:54;;;;;;;6.93;4.15;;;21.60;99.90;;;;;;5070062;28;20024;-65
2021/09/15 12:13:30;;;;;;;5.28;3.03;;;21.50;99.90;;;;;;5076968;28;20028;-63
2021/09/15 12:15:56;;;;;;;4.18;3.75;;;21.40;99.90;;;;;;5095304;28;20032;-65
2021/09/15 12:18:40;;;;;;;6.13;3.95;;;21.30;99.90;;;;;;5073758;28;20392;-63
2021/09/15 12:21:17;;;;;;;4.40;3.28;;;21.30;99.90;;;;;;5069816;28;20407;-63
2021/09/15 12:23:43;;;;;;;4.43;3.53;;;21.40;99.90;;;;;;5069879;28;20056;-63
2021/09/15 12:26:10;;;;;;;6.18;4.07;;;21.30;99.90;;;;;;5069405;28;20028;-64
2021/09/15 12:28:36;;;;;;;7.32;4.47;;;21.30;99.90;;;;;;5071359;28;20047;-63
2021/09/15 12:31:06;;;;;;;6.38;3.47;;;21.50;99.90;;;;;;5069941;28;20025;-63
2021/09/15 12:33:39;;;;;;;6.40;4.18;;;21.60;99.90;;;;;;5071044;28;20101;-63
2021/09/15 12:36:16;;;;;;;6.00;4.82;;;21.70;99.90;;;;;;5070203;28;20074;-65
2021/09/15 12:38:58;;;;;;;6.50;3.78;;;21.70;99.90;;;;;;5071068;28;20043;-63
2021/09/15 12:41:48;;;;;;;4.43;3.83;;;21.70;99.90;;;;;;5070589;28;20044;-63
2021/09/15 12:44:14;;;;;;;4.72;3.70;;;21.60;99.90;;;;;;5068894;28;20477;-63
2021/09/15 12:46:54;;;;;;;9.55;4.40;;;21.60;99.90;;;;;;5071048;28;20113;-63
2021/09/15 12:49:46;;;;;;;5.78;4.70;;;21.50;99.90;;;;;;5069171;28;20035;-64
2021/09/15 12:52:16;;;;;;;6.38;4.75;;;21.60;99.90;;;;;;5067270;28;20139;-64